RYR771 EGCC-EHAM
Flight info
| Callsign | RYR771 |
|---|---|
| Flight time | 0h 54m |
| Altitude | 31000 |
| Route | DESIG1S DESIG L603 LAMSO LAMSO2A |
| Aircraft | B738/M-SDE2E3FGHIRWXY/LB1 |
Departure
| Time | 2026-05-05 17:06 |
|---|---|
| Airport | Manchester Airport (EGCC) |
Arrival
| Time | 2026-05-05 18:00 |
|---|---|
| Airport | Amsterdam Airport Schiphol (EHAM) |
| Time | Latitude | Longitude | Altitude | Speed | Heading |
|---|---|---|---|---|---|
| 2026-05-05 16:34 | 53.35976 | -2.26974 | 247 ft | 0 kts | 290° |
| 2026-05-05 16:47 | 53.35969 | -2.26943 | 247 ft | 4 kts | 291° |
| 2026-05-05 16:48 | 53.35960 | -2.26901 | 248 ft | 4 kts | 276° |
| 2026-05-05 16:48 | 53.35962 | -2.26865 | 248 ft | 4 kts | 213° |
| 2026-05-05 16:48 | 53.35966 | -2.26860 | 248 ft | 0 kts | 152° |
| 2026-05-05 16:51 | 53.35956 | -2.26851 | 248 ft | 5 kts | 152° |
| 2026-05-05 16:52 | 53.35904 | -2.26842 | 248 ft | 11 kts | 207° |
| 2026-05-05 16:52 | 53.35845 | -2.26960 | 246 ft | 15 kts | 243° |
| 2026-05-05 16:52 | 53.35774 | -2.27134 | 244 ft | 21 kts | 231° |
| 2026-05-05 16:52 | 53.35683 | -2.27325 | 242 ft | 21 kts | 231° |
| 2026-05-05 16:53 | 53.35593 | -2.27509 | 239 ft | 20 kts | 229° |
| 2026-05-05 16:53 | 53.35507 | -2.27687 | 237 ft | 20 kts | 232° |
| 2026-05-05 16:53 | 53.35456 | -2.27888 | 236 ft | 18 kts | 259° |
| 2026-05-05 16:53 | 53.35380 | -2.28052 | 236 ft | 18 kts | 224° |
| 2026-05-05 16:54 | 53.35290 | -2.28189 | 231 ft | 17 kts | 224° |
| 2026-05-05 16:54 | 53.35214 | -2.28335 | 230 ft | 17 kts | 232° |
| 2026-05-05 16:54 | 53.35143 | -2.28483 | 228 ft | 16 kts | 232° |
| 2026-05-05 16:54 | 53.35066 | -2.28644 | 226 ft | 20 kts | 230° |
| 2026-05-05 16:55 | 53.34963 | -2.28833 | 223 ft | 24 kts | 225° |
| 2026-05-05 16:55 | 53.34846 | -2.29040 | 220 ft | 23 kts | 227° |
| 2026-05-05 16:55 | 53.34756 | -2.29217 | 218 ft | 15 kts | 230° |
| 2026-05-05 16:55 | 53.34722 | -2.29282 | 222 ft | 0 kts | 223° |
| 2026-05-05 16:56 | 53.34721 | -2.29283 | 222 ft | 1 kts | 223° |
| 2026-05-05 16:56 | 53.34711 | -2.29299 | 221 ft | 4 kts | 222° |
| 2026-05-05 16:57 | 53.34676 | -2.29330 | 216 ft | 0 kts | 197° |
| 2026-05-05 17:01 | 53.34674 | -2.29331 | 216 ft | 1 kts | 197° |
| 2026-05-05 17:02 | 53.34670 | -2.29332 | 216 ft | 1 kts | 197° |
| 2026-05-05 17:02 | 53.34662 | -2.29337 | 216 ft | 1 kts | 197° |
| 2026-05-05 17:02 | 53.34661 | -2.29337 | 216 ft | 0 kts | 197° |
| 2026-05-05 17:03 | 53.34660 | -2.29338 | 216 ft | 1 kts | 197° |
| 2026-05-05 17:03 | 53.34615 | -2.29341 | 215 ft | 13 kts | 174° |
| 2026-05-05 17:04 | 53.34545 | -2.29230 | 215 ft | 16 kts | 80° |
| 2026-05-05 17:04 | 53.34566 | -2.29166 | 215 ft | 0 kts | 51° |
| 2026-05-05 17:05 | 53.34567 | -2.29163 | 215 ft | 1 kts | 51° |
| 2026-05-05 17:05 | 53.34676 | -2.28940 | 219 ft | 67 kts | 51° |
| 2026-05-05 17:05 | 53.35163 | -2.27936 | 234 ft | 152 kts | 50° |
| 2026-05-05 17:05 | 53.35937 | -2.26337 | 729 ft | 189 kts | 50° |
| 2026-05-05 17:06 | 53.36750 | -2.24633 | 2037 ft | 187 kts | 50° |
| 2026-05-05 17:06 | 53.37569 | -2.22904 | 3184 ft | 198 kts | 50° |
| 2026-05-05 17:06 | 53.38485 | -2.20970 | 3800 ft | 230 kts | 50° |
| 2026-05-05 17:06 | 53.39568 | -2.18685 | 4351 ft | 265 kts | 50° |
| 2026-05-05 17:07 | 53.40788 | -2.16113 | 4933 ft | 303 kts | 50° |
| 2026-05-05 17:07 | 53.42201 | -2.13124 | 5007 ft | 352 kts | 51° |
| 2026-05-05 17:07 | 53.43810 | -2.09703 | 5011 ft | 383 kts | 51° |
| 2026-05-05 17:07 | 53.45394 | -2.06316 | 4985 ft | 365 kts | 51° |
| 2026-05-05 17:08 | 53.46914 | -2.03058 | 4976 ft | 343 kts | 51° |
| 2026-05-05 17:08 | 53.48347 | -1.99994 | 4974 ft | 324 kts | 50° |
| 2026-05-05 17:08 | 53.49783 | -1.97212 | 4975 ft | 306 kts | 46° |
| 2026-05-05 17:08 | 53.50721 | -1.95499 | 4976 ft | 295 kts | 47° |
| 2026-05-05 17:09 | 53.51917 | -1.92801 | 4987 ft | 281 kts | 54° |
| 2026-05-05 17:09 | 53.52888 | -1.90052 | 4974 ft | 270 kts | 69° |
| 2026-05-05 17:09 | 53.52991 | -1.86946 | 5023 ft | 270 kts | 103° |
| 2026-05-05 17:09 | 53.52345 | -1.83928 | 5455 ft | 277 kts | 112° |
| 2026-05-05 17:10 | 53.51603 | -1.80932 | 6451 ft | 277 kts | 111° |
| 2026-05-05 17:10 | 53.50909 | -1.77903 | 7330 ft | 280 kts | 110° |
| 2026-05-05 17:10 | 53.50258 | -1.74781 | 8171 ft | 285 kts | 108° |
| 2026-05-05 17:10 | 53.49650 | -1.71634 | 8964 ft | 290 kts | 107° |
| 2026-05-05 17:11 | 53.49052 | -1.68357 | 9797 ft | 295 kts | 107° |
| 2026-05-05 17:11 | 53.48459 | -1.65022 | 10461 ft | 305 kts | 107° |
| 2026-05-05 17:11 | 53.47832 | -1.61467 | 10658 ft | 331 kts | 107° |
| 2026-05-05 17:11 | 53.47153 | -1.57625 | 10856 ft | 354 kts | 107° |
| 2026-05-05 17:12 | 53.46431 | -1.53592 | 11361 ft | 365 kts | 107° |
| 2026-05-05 17:12 | 53.45690 | -1.49478 | 12081 ft | 370 kts | 107° |
| 2026-05-05 17:12 | 53.44940 | -1.45328 | 12877 ft | 372 kts | 107° |
| 2026-05-05 17:12 | 53.44185 | -1.41151 | 13627 ft | 377 kts | 107° |
| 2026-05-05 17:13 | 53.43419 | -1.36917 | 14305 ft | 381 kts | 107° |
| 2026-05-05 17:13 | 53.42646 | -1.32653 | 14992 ft | 384 kts | 107° |
| 2026-05-05 17:13 | 53.41863 | -1.28351 | 15670 ft | 387 kts | 107° |
| 2026-05-05 17:13 | 53.41090 | -1.24013 | 16325 ft | 391 kts | 107° |
| 2026-05-05 17:14 | 53.40321 | -1.19624 | 16975 ft | 394 kts | 107° |
| 2026-05-05 17:14 | 53.39524 | -1.15207 | 17624 ft | 398 kts | 108° |
| 2026-05-05 17:14 | 53.38715 | -1.10804 | 18241 ft | 402 kts | 108° |
| 2026-05-05 17:14 | 53.37885 | -1.06313 | 18816 ft | 405 kts | 108° |
| 2026-05-05 17:15 | 53.37051 | -1.01804 | 19405 ft | 407 kts | 108° |
| 2026-05-05 17:15 | 53.36211 | -0.97268 | 19986 ft | 409 kts | 108° |
| 2026-05-05 17:15 | 53.35366 | -0.92705 | 20530 ft | 412 kts | 108° |
| 2026-05-05 17:15 | 53.34514 | -0.88114 | 21080 ft | 414 kts | 108° |
| 2026-05-05 17:16 | 53.33657 | -0.83501 | 21622 ft | 417 kts | 108° |
| 2026-05-05 17:16 | 53.32788 | -0.78833 | 22150 ft | 420 kts | 108° |
| 2026-05-05 17:16 | 53.31914 | -0.74151 | 22656 ft | 423 kts | 108° |
| 2026-05-05 17:16 | 53.31032 | -0.69441 | 23165 ft | 426 kts | 108° |
| 2026-05-05 17:17 | 53.30142 | -0.64704 | 23647 ft | 429 kts | 108° |
| 2026-05-05 17:17 | 53.29241 | -0.59931 | 24057 ft | 431 kts | 108° |
| 2026-05-05 17:17 | 53.28336 | -0.55138 | 24475 ft | 433 kts | 108° |
| 2026-05-05 17:17 | 53.27424 | -0.50323 | 24891 ft | 435 kts | 108° |
| 2026-05-05 17:18 | 53.26508 | -0.45497 | 25290 ft | 437 kts | 108° |
| 2026-05-05 17:18 | 53.25586 | -0.40634 | 25669 ft | 440 kts | 108° |
| 2026-05-05 17:18 | 53.24677 | -0.35822 | 26036 ft | 442 kts | 108° |
| 2026-05-05 17:18 | 53.23748 | -0.30914 | 26417 ft | 444 kts | 108° |
| 2026-05-05 17:19 | 53.22811 | -0.25999 | 26784 ft | 446 kts | 108° |
| 2026-05-05 17:19 | 53.21858 | -0.21052 | 27138 ft | 448 kts | 109° |
| 2026-05-05 17:19 | 53.20899 | -0.16096 | 27472 ft | 451 kts | 109° |
| 2026-05-05 17:19 | 53.19932 | -0.11098 | 27807 ft | 453 kts | 109° |
| 2026-05-05 17:20 | 53.18961 | -0.06089 | 28137 ft | 455 kts | 109° |
| 2026-05-05 17:20 | 53.17984 | -0.01061 | 28477 ft | 456 kts | 109° |
| 2026-05-05 17:20 | 53.17006 | 0.03975 | 28906 ft | 456 kts | 109° |
| 2026-05-05 17:20 | 53.16030 | 0.08992 | 29441 ft | 453 kts | 109° |
| 2026-05-05 17:21 | 53.15055 | 0.14003 | 29961 ft | 451 kts | 109° |
| 2026-05-05 17:21 | 53.14092 | 0.18942 | 30347 ft | 450 kts | 109° |
| 2026-05-05 17:21 | 53.13123 | 0.23896 | 30648 ft | 451 kts | 109° |
| 2026-05-05 17:22 | 53.11176 | 0.33809 | 30978 ft | 456 kts | 109° |
| 2026-05-05 17:22 | 53.09193 | 0.43849 | 30983 ft | 456 kts | 110° |
| 2026-05-05 17:23 | 53.07215 | 0.53820 | 30982 ft | 452 kts | 110° |
| 2026-05-05 17:23 | 53.05235 | 0.63746 | 30986 ft | 453 kts | 110° |
| 2026-05-05 17:24 | 53.03236 | 0.73716 | 30978 ft | 454 kts | 110° |
| 2026-05-05 17:24 | 53.01238 | 0.83635 | 30979 ft | 456 kts | 110° |
| 2026-05-05 17:25 | 52.99216 | 0.93627 | 30973 ft | 457 kts | 111° |
| 2026-05-05 17:25 | 52.97361 | 1.03725 | 30969 ft | 459 kts | 104° |
| 2026-05-05 17:26 | 52.96154 | 1.14146 | 30970 ft | 461 kts | 102° |
| 2026-05-05 17:26 | 52.95018 | 1.24626 | 30969 ft | 461 kts | 102° |
| 2026-05-05 17:27 | 52.93838 | 1.35005 | 30968 ft | 461 kts | 103° |
| 2026-05-05 17:27 | 52.92602 | 1.45508 | 30968 ft | 461 kts | 103° |
| 2026-05-05 17:28 | 52.91365 | 1.55866 | 30966 ft | 461 kts | 103° |
| 2026-05-05 17:28 | 52.90113 | 1.66275 | 30966 ft | 461 kts | 103° |
| 2026-05-05 17:29 | 52.88854 | 1.76669 | 30968 ft | 460 kts | 103° |
| 2026-05-05 17:29 | 52.87591 | 1.87029 | 30954 ft | 452 kts | 104° |
| 2026-05-05 17:29 | 52.86979 | 1.92038 | 30944 ft | 436 kts | 104° |
| 2026-05-05 17:30 | 52.86386 | 1.96869 | 30943 ft | 421 kts | 104° |
| 2026-05-05 17:30 | 52.85812 | 2.01530 | 30947 ft | 406 kts | 104° |
| 2026-05-05 17:30 | 52.85252 | 2.06048 | 30942 ft | 393 kts | 104° |
| 2026-05-05 17:30 | 52.84710 | 2.10399 | 30464 ft | 394 kts | 104° |
| 2026-05-05 17:31 | 52.84141 | 2.14916 | 29174 ft | 412 kts | 104° |
| 2026-05-05 17:31 | 52.83539 | 2.19675 | 27685 ft | 433 kts | 104° |
| 2026-05-05 17:31 | 52.82914 | 2.24625 | 26687 ft | 442 kts | 104° |
| 2026-05-05 17:31 | 52.82289 | 2.29600 | 26114 ft | 439 kts | 104° |
| 2026-05-05 17:32 | 52.81671 | 2.34514 | 25663 ft | 433 kts | 104° |
| 2026-05-05 17:32 | 52.81057 | 2.39373 | 25179 ft | 429 kts | 104° |
| 2026-05-05 17:32 | 52.80443 | 2.44202 | 24636 ft | 427 kts | 103° |
| 2026-05-05 17:32 | 52.79832 | 2.48977 | 24092 ft | 425 kts | 103° |
| 2026-05-05 17:33 | 52.79217 | 2.53753 | 23576 ft | 423 kts | 103° |
| 2026-05-05 17:33 | 52.78604 | 2.58491 | 23011 ft | 420 kts | 103° |
| 2026-05-05 17:33 | 52.77996 | 2.63178 | 22512 ft | 415 kts | 103° |
| 2026-05-05 17:33 | 52.77393 | 2.67812 | 22023 ft | 411 kts | 103° |
| 2026-05-05 17:34 | 52.76795 | 2.72405 | 21513 ft | 407 kts | 103° |
| 2026-05-05 17:34 | 52.76200 | 2.76957 | 21010 ft | 404 kts | 103° |
| 2026-05-05 17:34 | 52.75608 | 2.81471 | 20521 ft | 400 kts | 103° |
| 2026-05-05 17:34 | 52.75038 | 2.85899 | 20049 ft | 397 kts | 103° |
| 2026-05-05 17:35 | 52.74359 | 2.90283 | 19568 ft | 393 kts | 108° |
| 2026-05-05 17:35 | 52.73529 | 2.94568 | 19095 ft | 390 kts | 110° |
| 2026-05-05 17:35 | 52.72655 | 2.98798 | 18625 ft | 387 kts | 110° |
| 2026-05-05 17:35 | 52.71780 | 3.02990 | 18165 ft | 385 kts | 110° |
| 2026-05-05 17:36 | 52.70918 | 3.07147 | 17633 ft | 382 kts | 110° |
| 2026-05-05 17:36 | 52.70068 | 3.11288 | 17118 ft | 380 kts | 110° |
| 2026-05-05 17:36 | 52.69226 | 3.15425 | 16614 ft | 378 kts | 109° |
| 2026-05-05 17:36 | 52.68396 | 3.19524 | 16107 ft | 376 kts | 109° |
| 2026-05-05 17:37 | 52.67574 | 3.23593 | 15635 ft | 374 kts | 109° |
| 2026-05-05 17:37 | 52.67031 | 3.26283 | 15321 ft | 372 kts | 109° |
| 2026-05-05 17:37 | 52.65947 | 3.31643 | 14677 ft | 370 kts | 109° |
| 2026-05-05 17:37 | 52.65131 | 3.35669 | 14216 ft | 368 kts | 109° |
| 2026-05-05 17:38 | 52.64322 | 3.39653 | 13767 ft | 366 kts | 109° |
| 2026-05-05 17:38 | 52.63515 | 3.43615 | 13305 ft | 363 kts | 109° |
| 2026-05-05 17:38 | 52.62714 | 3.47544 | 12835 ft | 361 kts | 109° |
| 2026-05-05 17:38 | 52.61920 | 3.51432 | 12407 ft | 357 kts | 109° |
| 2026-05-05 17:39 | 52.61130 | 3.55289 | 11915 ft | 355 kts | 109° |
| 2026-05-05 17:39 | 52.60343 | 3.59128 | 11505 ft | 352 kts | 109° |
| 2026-05-05 17:39 | 52.59562 | 3.62925 | 11214 ft | 345 kts | 109° |
| 2026-05-05 17:39 | 52.58807 | 3.66597 | 11054 ft | 335 kts | 109° |
| 2026-05-05 17:40 | 52.58065 | 3.70196 | 10732 ft | 330 kts | 109° |
| 2026-05-05 17:40 | 52.57335 | 3.73728 | 10305 ft | 330 kts | 109° |
| 2026-05-05 17:40 | 52.56600 | 3.77274 | 10020 ft | 325 kts | 109° |
| 2026-05-05 17:40 | 52.55872 | 3.80784 | 9577 ft | 325 kts | 109° |
| 2026-05-05 17:41 | 52.55144 | 3.84292 | 9212 ft | 322 kts | 109° |
| 2026-05-05 17:41 | 52.54425 | 3.87751 | 8824 ft | 319 kts | 109° |
| 2026-05-05 17:41 | 52.53692 | 3.91182 | 8424 ft | 318 kts | 112° |
| 2026-05-05 17:41 | 52.52499 | 3.94201 | 8073 ft | 314 kts | 132° |
| 2026-05-05 17:42 | 52.50962 | 3.96737 | 7681 ft | 313 kts | 136° |
| 2026-05-05 17:42 | 52.49377 | 3.99185 | 7273 ft | 312 kts | 136° |
| 2026-05-05 17:42 | 52.47774 | 4.01582 | 6887 ft | 311 kts | 137° |
| 2026-05-05 17:42 | 52.46165 | 4.03928 | 6490 ft | 310 kts | 138° |
| 2026-05-05 17:43 | 52.44548 | 4.06266 | 6157 ft | 307 kts | 138° |
| 2026-05-05 17:43 | 52.42962 | 4.08533 | 5745 ft | 306 kts | 137° |
| 2026-05-05 17:43 | 52.41357 | 4.10811 | 5354 ft | 304 kts | 135° |
| 2026-05-05 17:43 | 52.39854 | 4.13213 | 4980 ft | 301 kts | 133° |
| 2026-05-05 17:44 | 52.38377 | 4.15642 | 4599 ft | 301 kts | 133° |
| 2026-05-05 17:44 | 52.36915 | 4.18045 | 4525 ft | 295 kts | 132° |
| 2026-05-05 17:44 | 52.35470 | 4.20404 | 4514 ft | 294 kts | 133° |
| 2026-05-05 17:44 | 52.34010 | 4.22788 | 4511 ft | 297 kts | 132° |
| 2026-05-05 17:45 | 52.32550 | 4.25211 | 4502 ft | 301 kts | 132° |
| 2026-05-05 17:45 | 52.31062 | 4.27645 | 4506 ft | 302 kts | 132° |
| 2026-05-05 17:45 | 52.29570 | 4.30074 | 4498 ft | 303 kts | 131° |
| 2026-05-05 17:45 | 52.28075 | 4.32509 | 4504 ft | 303 kts | 132° |
| 2026-05-05 17:46 | 52.26583 | 4.34941 | 4501 ft | 303 kts | 132° |
| 2026-05-05 17:46 | 52.25129 | 4.37315 | 4489 ft | 296 kts | 132° |
| 2026-05-05 17:46 | 52.23706 | 4.39634 | 4474 ft | 282 kts | 132° |
| 2026-05-05 17:46 | 52.22347 | 4.41839 | 4472 ft | 268 kts | 131° |
| 2026-05-05 17:47 | 52.21221 | 4.44155 | 4491 ft | 255 kts | 111° |
| 2026-05-05 17:47 | 52.20804 | 4.46900 | 4519 ft | 250 kts | 94° |
| 2026-05-05 17:47 | 52.20626 | 4.49720 | 4431 ft | 248 kts | 92° |
| 2026-05-05 17:47 | 52.20313 | 4.52451 | 4253 ft | 245 kts | 100° |
| 2026-05-05 17:48 | 52.19894 | 4.55160 | 3902 ft | 247 kts | 99° |
| 2026-05-05 17:48 | 52.19904 | 4.57917 | 3452 ft | 247 kts | 68° |
| 2026-05-05 17:48 | 52.20936 | 4.60111 | 2903 ft | 251 kts | 32° |
| 2026-05-05 17:48 | 52.22447 | 4.61576 | 2434 ft | 255 kts | 38° |
| 2026-05-05 17:49 | 52.23893 | 4.63362 | 1983 ft | 258 kts | 37° |
| 2026-05-05 17:49 | 52.25342 | 4.64867 | 1916 ft | 246 kts | 29° |
| 2026-05-05 17:49 | 52.26608 | 4.66588 | 1907 ft | 233 kts | 51° |
| 2026-05-05 17:49 | 52.27508 | 4.68814 | 1741 ft | 228 kts | 56° |
| 2026-05-05 17:50 | 52.28360 | 4.70894 | 1788 ft | 211 kts | 46° |
| 2026-05-05 17:50 | 52.29375 | 4.72407 | 1988 ft | 191 kts | 45° |
| 2026-05-05 17:50 | 52.29942 | 4.74357 | 1997 ft | 196 kts | 81° |
| 2026-05-05 17:50 | 52.29634 | 4.76595 | 2017 ft | 214 kts | 117° |
| 2026-05-05 17:51 | 52.28522 | 4.78271 | 2007 ft | 226 kts | 152° |
| 2026-05-05 17:51 | 52.26967 | 4.78749 | 2014 ft | 232 kts | 179° |
| 2026-05-05 17:51 | 52.25341 | 4.78624 | 2013 ft | 236 kts | 181° |
| 2026-05-05 17:51 | 52.23703 | 4.78438 | 2011 ft | 236 kts | 182° |
| 2026-05-05 17:52 | 52.22060 | 4.78242 | 1996 ft | 235 kts | 182° |
| 2026-05-05 17:52 | 52.20445 | 4.78049 | 1999 ft | 232 kts | 182° |
| 2026-05-05 17:52 | 52.18842 | 4.77855 | 1985 ft | 229 kts | 182° |
| 2026-05-05 17:52 | 52.17289 | 4.77580 | 1981 ft | 227 kts | 195° |
| 2026-05-05 17:53 | 52.15962 | 4.76268 | 1995 ft | 224 kts | 231° |
| 2026-05-05 17:53 | 52.15283 | 4.74018 | 2025 ft | 224 kts | 259° |
| 2026-05-05 17:53 | 52.14940 | 4.71525 | 2004 ft | 227 kts | 262° |
| 2026-05-05 17:53 | 52.14622 | 4.69006 | 2001 ft | 227 kts | 262° |
| 2026-05-05 17:54 | 52.14315 | 4.66485 | 2000 ft | 228 kts | 262° |
| 2026-05-05 17:54 | 52.14006 | 4.63952 | 1994 ft | 228 kts | 262° |
| 2026-05-05 17:54 | 52.13697 | 4.61422 | 1996 ft | 228 kts | 262° |
| 2026-05-05 17:54 | 52.13594 | 4.58880 | 1959 ft | 222 kts | 287° |
| 2026-05-05 17:55 | 52.14278 | 4.56771 | 1970 ft | 205 kts | 322° |
| 2026-05-05 17:55 | 52.14998 | 4.55863 | 1998 ft | 192 kts | 330° |
| 2026-05-05 17:55 | 52.16082 | 4.54705 | 1968 ft | 180 kts | 332° |
| 2026-05-05 17:55 | 52.17121 | 4.53612 | 1989 ft | 177 kts | 332° |
| 2026-05-05 17:56 | 52.18156 | 4.52521 | 1991 ft | 176 kts | 333° |
| 2026-05-05 17:56 | 52.19196 | 4.51558 | 1985 ft | 167 kts | 351° |
| 2026-05-05 17:56 | 52.20272 | 4.51726 | 1998 ft | 157 kts | 30° |
| 2026-05-05 17:56 | 52.20954 | 4.53086 | 2025 ft | 160 kts | 56° |
| 2026-05-05 17:57 | 52.21537 | 4.54610 | 2010 ft | 157 kts | 55° |
| 2026-05-05 17:57 | 52.22124 | 4.56118 | 2002 ft | 159 kts | 54° |
| 2026-05-05 17:57 | 52.22720 | 4.57646 | 1993 ft | 161 kts | 54° |
| 2026-05-05 17:57 | 52.23320 | 4.59184 | 2005 ft | 164 kts | 52° |
| 2026-05-05 17:58 | 52.24006 | 4.60668 | 1897 ft | 163 kts | 55° |
| 2026-05-05 17:58 | 52.24587 | 4.62253 | 1609 ft | 159 kts | 57° |
| 2026-05-05 17:58 | 52.25139 | 4.63768 | 1388 ft | 153 kts | 56° |
| 2026-05-05 17:58 | 52.25695 | 4.65263 | 1191 ft | 155 kts | 56° |
| 2026-05-05 17:59 | 52.26262 | 4.66767 | 987 ft | 155 kts | 55° |
| 2026-05-05 17:59 | 52.26832 | 4.68269 | 781 ft | 157 kts | 55° |
| 2026-05-05 17:59 | 52.27412 | 4.69787 | 579 ft | 159 kts | 55° |
| 2026-05-05 17:59 | 52.27984 | 4.71347 | 368 ft | 158 kts | 54° |
| 2026-05-05 18:00 | 52.28527 | 4.72786 | 139 ft | 143 kts | 51° |
| 2026-05-05 18:00 | 52.29039 | 4.74076 | -2 ft | 126 kts | 54° |
| 2026-05-05 18:00 | 52.29317 | 4.74783 | -2 ft | 31 kts | 57° |
| 2026-05-05 18:00 | 52.29435 | 4.75088 | -4 ft | 31 kts | 57° |
| 2026-05-05 18:01 | 52.29548 | 4.75339 | -3 ft | 22 kts | 33° |
| 2026-05-05 18:01 | 52.29653 | 4.75327 | -3 ft | 11 kts | 328° |
| 2026-05-05 18:01 | 52.29666 | 4.75314 | -3 ft | 0 kts | 329° |
| 2026-05-05 18:04 | 52.29668 | 4.75312 | -3 ft | 3 kts | 329° |
| 2026-05-05 18:04 | 52.29720 | 4.75280 | -3 ft | 13 kts | 351° |
| 2026-05-05 18:05 | 52.29824 | 4.75225 | -3 ft | 20 kts | 318° |
| 2026-05-05 18:05 | 52.29930 | 4.75025 | -3 ft | 26 kts | 312° |
| 2026-05-05 18:05 | 52.30058 | 4.74792 | -3 ft | 29 kts | 311° |
| 2026-05-05 18:05 | 52.30189 | 4.74548 | -3 ft | 25 kts | 311° |
| 2026-05-05 18:06 | 52.30303 | 4.74338 | -3 ft | 24 kts | 314° |
| 2026-05-05 18:06 | 52.30373 | 4.74229 | -3 ft | 20 kts | 332° |
| 2026-05-05 18:06 | 52.30550 | 4.74202 | -3 ft | 19 kts | 3° |
| 2026-05-05 18:06 | 52.30680 | 4.74213 | -3 ft | 18 kts | 2° |
| 2026-05-05 18:07 | 52.30806 | 4.74225 | -3 ft | 18 kts | 3° |
| 2026-05-05 18:07 | 52.30926 | 4.74236 | -3 ft | 17 kts | 3° |
| 2026-05-05 18:07 | 52.31046 | 4.74248 | -3 ft | 18 kts | 2° |
| 2026-05-05 18:07 | 52.31184 | 4.74260 | -3 ft | 21 kts | 3° |
| 2026-05-05 18:08 | 52.31332 | 4.74274 | -3 ft | 13 kts | 3° |
| 2026-05-05 18:08 | 52.31336 | 4.74275 | -3 ft | 1 kts | 3° |
| 2026-05-05 18:08 | 52.31378 | 4.74304 | -3 ft | 12 kts | 47° |
| 2026-05-05 18:08 | 52.31396 | 4.74489 | -3 ft | 20 kts | 87° |
| 2026-05-05 18:09 | 52.31405 | 4.74709 | -3 ft | 19 kts | 86° |
| 2026-05-05 18:09 | 52.31410 | 4.74927 | -3 ft | 19 kts | 88° |
| 2026-05-05 18:09 | 52.31416 | 4.75135 | -3 ft | 18 kts | 86° |
| 2026-05-05 18:09 | 52.31423 | 4.75336 | -3 ft | 17 kts | 85° |
| 2026-05-05 18:10 | 52.31353 | 4.75451 | -3 ft | 17 kts | 179° |
| 2026-05-05 18:10 | 52.31240 | 4.75488 | -3 ft | 16 kts | 177° |
| 2026-05-05 18:10 | 52.31143 | 4.75496 | -3 ft | 13 kts | 176° |
| 2026-05-05 18:10 | 52.31075 | 4.75486 | -3 ft | 9 kts | 159° |
| 2026-05-05 18:11 | 52.31048 | 4.75511 | -3 ft | 0 kts | 148° |